sensor_id;sensor_type;location;lat;lon;timestamp;P1;durP1;ratioP1;P2;durP2;ratioP2
58360;SDS011;44164;44.954;10.068;2022-09-16T00:01:22;3.78;;;1.95;;
58360;SDS011;44164;44.954;10.068;2022-09-16T00:03:52;3.70;;;1.80;;
58360;SDS011;44164;44.954;10.068;2022-09-16T00:06:24;4.32;;;1.80;;
58360;SDS011;44164;44.954;10.068;2022-09-16T00:08:56;3.97;;;1.65;;
58360;SDS011;44164;44.954;10.068;2022-09-16T00:11:23;5.68;;;1.77;;
58360;SDS011;44164;44.954;10.068;2022-09-16T00:13:49;3.97;;;1.70;;
58360;SDS011;44164;44.954;10.068;2022-09-16T00:16:18;3.90;;;1.38;;
58360;SDS011;44164;44.954;10.068;2022-09-16T00:18:56;5.28;;;1.88;;
58360;SDS011;44164;44.954;10.068;2022-09-16T00:21:24;4.15;;;1.70;;
58360;SDS011;44164;44.954;10.068;2022-09-16T00:23:52;4.07;;;1.58;;
58360;SDS011;44164;44.954;10.068;2022-09-16T00:26:18;3.65;;;1.67;;
58360;SDS011;44164;44.954;10.068;2022-09-16T00:28:47;3.22;;;1.60;;
58360;SDS011;44164;44.954;10.068;2022-09-16T00:31:14;3.78;;;1.30;;
58360;SDS011;44164;44.954;10.068;2022-09-16T00:33:40;3.30;;;1.45;;
58360;SDS011;44164;44.954;10.068;2022-09-16T00:36:08;2.63;;;1.42;;
58360;SDS011;44164;44.954;10.068;2022-09-16T00:38:36;2.60;;;1.30;;
58360;SDS011;44164;44.954;10.068;2022-09-16T00:41:03;3.70;;;2.22;;
58360;SDS011;44164;44.954;10.068;2022-09-16T00:46:13;3.58;;;1.70;;
58360;SDS011;44164;44.954;10.068;2022-09-16T00:48:40;2.43;;;1.33;;
58360;SDS011;44164;44.954;10.068;2022-09-16T00:51:08;4.65;;;1.45;;
58360;SDS011;44164;44.954;10.068;2022-09-16T00:53:39;2.55;;;1.48;;
58360;SDS011;44164;44.954;10.068;2022-09-16T00:56:08;3.17;;;1.40;;
58360;SDS011;44164;44.954;10.068;2022-09-16T00:58:41;3.30;;;1.33;;
58360;SDS011;44164;44.954;10.068;2022-09-16T01:01:09;4.65;;;1.80;;
58360;SDS011;44164;44.954;10.068;2022-09-16T01:03:41;2.80;;;1.50;;
58360;SDS011;44164;44.954;10.068;2022-09-16T01:06:11;4.03;;;1.95;;
58360;SDS011;44164;44.954;10.068;2022-09-16T01:08:39;3.30;;;1.60;;
58360;SDS011;44164;44.954;10.068;2022-09-16T01:11:09;3.13;;;2.15;;
58360;SDS011;44164;44.954;10.068;2022-09-16T01:13:35;4.57;;;1.50;;
58360;SDS011;44164;44.954;10.068;2022-09-16T01:16:08;4.10;;;1.38;;
58360;SDS011;44164;44.954;10.068;2022-09-16T01:19:31;2.88;;;1.40;;
58360;SDS011;44164;44.954;10.068;2022-09-16T01:32:35;4.85;;;1.98;;
58360;SDS011;44164;44.954;10.068;2022-09-16T01:40:56;2.97;;;1.40;;
58360;SDS011;44164;44.954;10.068;2022-09-16T01:46:23;3.38;;;1.40;;
58360;SDS011;44164;44.954;10.068;2022-09-16T01:56:54;3.45;;;1.88;;
58360;SDS011;44164;44.954;10.068;2022-09-16T01:59:32;3.05;;;1.70;;
58360;SDS011;44164;44.954;10.068;2022-09-16T02:04:36;5.40;;;1.30;;
58360;SDS011;44164;44.954;10.068;2022-09-16T02:07:06;4.25;;;2.13;;
58360;SDS011;44164;44.954;10.068;2022-09-16T02:09:39;4.00;;;1.60;;
58360;SDS011;44164;44.954;10.068;2022-09-16T02:12:16;4.00;;;1.48;;
58360;SDS011;44164;44.954;10.068;2022-09-16T02:14:45;4.47;;;2.35;;
58360;SDS011;44164;44.954;10.068;2022-09-16T02:17:17;4.55;;;2.13;;
58360;SDS011;44164;44.954;10.068;2022-09-16T02:19:57;2.80;;;1.63;;
58360;SDS011;44164;44.954;10.068;2022-09-16T02:22:28;3.72;;;1.58;;
58360;SDS011;44164;44.954;10.068;2022-09-16T02:24:57;2.60;;;1.40;;
58360;SDS011;44164;44.954;10.068;2022-09-16T02:27:24;3.17;;;1.58;;
58360;SDS011;44164;44.954;10.068;2022-09-16T02:29:53;3.58;;;1.60;;
58360;SDS011;44164;44.954;10.068;2022-09-16T02:32:22;4.07;;;1.48;;
58360;SDS011;44164;44.954;10.068;2022-09-16T02:34:50;3.78;;;1.50;;
58360;SDS011;44164;44.954;10.068;2022-09-16T02:37:17;3.88;;;1.45;;
58360;SDS011;44164;44.954;10.068;2022-09-16T02:39:46;2.95;;;1.33;;
58360;SDS011;44164;44.954;10.068;2022-09-16T02:42:14;3.38;;;1.55;;
58360;SDS011;44164;44.954;10.068;2022-09-16T02:44:41;3.20;;;1.40;;
58360;SDS011;44164;44.954;10.068;2022-09-16T02:52:15;2.80;;;1.38;;
58360;SDS011;44164;44.954;10.068;2022-09-16T02:55:25;3.25;;;1.30;;
58360;SDS011;44164;44.954;10.068;2022-09-16T02:57:54;3.22;;;1.35;;
58360;SDS011;44164;44.954;10.068;2022-09-16T03:00:21;4.05;;;1.60;;
58360;SDS011;44164;44.954;10.068;2022-09-16T03:02:47;3.40;;;1.60;;
58360;SDS011;44164;44.954;10.068;2022-09-16T03:05:13;4.15;;;1.85;;
58360;SDS011;44164;44.954;10.068;2022-09-16T03:07:40;3.85;;;1.42;;
58360;SDS011;44164;44.954;10.068;2022-09-16T03:10:10;3.42;;;1.73;;
58360;SDS011;44164;44.954;10.068;2022-09-16T03:17:46;3.55;;;1.63;;
58360;SDS011;44164;44.954;10.068;2022-09-16T03:26:18;5.20;;;1.60;;
58360;SDS011;44164;44.954;10.068;2022-09-16T03:36:50;5.10;;;1.70;;
58360;SDS011;44164;44.954;10.068;2022-09-16T03:39:19;7.00;;;1.80;;
58360;SDS011;44164;44.954;10.068;2022-09-16T03:41:47;4.65;;;1.73;;
58360;SDS011;44164;44.954;10.068;2022-09-16T03:44:13;4.15;;;1.40;;
58360;SDS011;44164;44.954;10.068;2022-09-16T03:46:40;3.40;;;1.50;;
58360;SDS011;44164;44.954;10.068;2022-09-16T03:49:06;2.53;;;1.30;;
58360;SDS011;44164;44.954;10.068;2022-09-16T03:51:32;4.35;;;1.83;;
58360;SDS011;44164;44.954;10.068;2022-09-16T03:53:58;3.92;;;1.38;;
58360;SDS011;44164;44.954;10.068;2022-09-16T03:56:24;2.65;;;1.35;;
58360;SDS011;44164;44.954;10.068;2022-09-16T03:58:50;3.15;;;1.45;;
58360;SDS011;44164;44.954;10.068;2022-09-16T04:01:17;3.85;;;1.88;;
58360;SDS011;44164;44.954;10.068;2022-09-16T04:03:43;3.90;;;1.88;;
58360;SDS011;44164;44.954;10.068;2022-09-16T04:06:09;4.72;;;1.70;;
58360;SDS011;44164;44.954;10.068;2022-09-16T04:08:35;3.53;;;1.63;;
58360;SDS011;44164;44.954;10.068;2022-09-16T04:11:02;6.13;;;1.85;;
58360;SDS011;44164;44.954;10.068;2022-09-16T04:13:33;4.55;;;2.35;;
58360;SDS011;44164;44.954;10.068;2022-09-16T04:16:00;6.67;;;2.07;;
58360;SDS011;44164;44.954;10.068;2022-09-16T04:20:58;8.63;;;1.98;;
58360;SDS011;44164;44.954;10.068;2022-09-16T04:23:25;4.82;;;2.08;;
58360;SDS011;44164;44.954;10.068;2022-09-16T04:25:53;5.05;;;1.75;;
58360;SDS011;44164;44.954;10.068;2022-09-16T04:28:23;4.45;;;2.00;;
58360;SDS011;44164;44.954;10.068;2022-09-16T04:30:49;4.63;;;1.80;;
58360;SDS011;44164;44.954;10.068;2022-09-16T04:33:17;6.03;;;1.95;;
58360;SDS011;44164;44.954;10.068;2022-09-16T04:35:43;4.32;;;1.92;;
58360;SDS011;44164;44.954;10.068;2022-09-16T04:38:09;2.78;;;1.60;;
58360;SDS011;44164;44.954;10.068;2022-09-16T04:40:35;3.88;;;1.75;;
58360;SDS011;44164;44.954;10.068;2022-09-16T04:43:04;4.22;;;1.70;;
58360;SDS011;44164;44.954;10.068;2022-09-16T04:45:31;5.68;;;1.85;;
58360;SDS011;44164;44.954;10.068;2022-09-16T04:47:57;3.92;;;1.92;;
58360;SDS011;44164;44.954;10.068;2022-09-16T04:50:24;4.90;;;2.03;;
58360;SDS011;44164;44.954;10.068;2022-09-16T04:52:50;10.77;;;5.85;;
58360;SDS011;44164;44.954;10.068;2022-09-16T04:55:17;15.90;;;5.70;;
58360;SDS011;44164;44.954;10.068;2022-09-16T04:57:43;13.85;;;6.05;;
58360;SDS011;44164;44.954;10.068;2022-09-16T05:00:09;20.48;;;6.55;;
58360;SDS011;44164;44.954;10.068;2022-09-16T05:02:36;16.05;;;5.57;;
58360;SDS011;44164;44.954;10.068;2022-09-16T05:05:02;21.35;;;6.40;;
58360;SDS011;44164;44.954;10.068;2022-09-16T05:07:29;16.75;;;5.93;;
58360;SDS011;44164;44.954;10.068;2022-09-16T05:09:55;20.00;;;6.32;;
58360;SDS011;44164;44.954;10.068;2022-09-16T05:12:21;13.43;;;5.40;;
58360;SDS011;44164;44.954;10.068;2022-09-16T05:14:47;12.10;;;6.18;;
58360;SDS011;44164;44.954;10.068;2022-09-16T05:17:13;11.00;;;6.65;;
58360;SDS011;44164;44.954;10.068;2022-09-16T05:19:40;11.52;;;6.68;;
58360;SDS011;44164;44.954;10.068;2022-09-16T05:22:06;15.68;;;7.03;;
58360;SDS011;44164;44.954;10.068;2022-09-16T05:24:33;15.77;;;7.18;;
58360;SDS011;44164;44.954;10.068;2022-09-16T05:27:01;10.73;;;6.57;;
58360;SDS011;44164;44.954;10.068;2022-09-16T05:29:28;15.15;;;6.72;;
58360;SDS011;44164;44.954;10.068;2022-09-16T05:31:54;10.65;;;5.60;;
58360;SDS011;44164;44.954;10.068;2022-09-16T05:34:21;18.25;;;6.35;;
58360;SDS011;44164;44.954;10.068;2022-09-16T05:36:48;11.38;;;7.07;;
58360;SDS011;44164;44.954;10.068;2022-09-16T05:39:15;11.85;;;6.07;;
58360;SDS011;44164;44.954;10.068;2022-09-16T05:41:43;15.52;;;6.40;;
58360;SDS011;44164;44.954;10.068;2022-09-16T05:44:10;8.27;;;5.60;;
58360;SDS011;44164;44.954;10.068;2022-09-16T05:46:36;10.98;;;5.97;;
58360;SDS011;44164;44.954;10.068;2022-09-16T05:49:06;15.80;;;6.47;;
58360;SDS011;44164;44.954;10.068;2022-09-16T05:51:32;10.37;;;6.80;;
58360;SDS011;44164;44.954;10.068;2022-09-16T05:53:58;13.07;;;6.93;;
58360;SDS011;44164;44.954;10.068;2022-09-16T05:56:26;13.43;;;6.60;;
58360;SDS011;44164;44.954;10.068;2022-09-16T05:58:55;14.05;;;5.72;;
58360;SDS011;44164;44.954;10.068;2022-09-16T06:01:24;13.05;;;6.18;;
58360;SDS011;44164;44.954;10.068;2022-09-16T06:03:52;16.90;;;6.72;;
58360;SDS011;44164;44.954;10.068;2022-09-16T06:06:27;14.07;;;6.20;;
58360;SDS011;44164;44.954;10.068;2022-09-16T06:08:57;13.43;;;6.43;;
58360;SDS011;44164;44.954;10.068;2022-09-16T06:11:25;16.73;;;7.05;;
58360;SDS011;44164;44.954;10.068;2022-09-16T06:13:53;16.77;;;7.65;;
58360;SDS011;44164;44.954;10.068;2022-09-16T06:16:21;14.95;;;7.47;;
58360;SDS011;44164;44.954;10.068;2022-09-16T06:18:51;15.38;;;6.90;;
58360;SDS011;44164;44.954;10.068;2022-09-16T06:21:18;17.70;;;6.78;;
58360;SDS011;44164;44.954;10.068;2022-09-16T06:23:44;25.98;;;7.50;;
58360;SDS011;44164;44.954;10.068;2022-09-16T06:26:12;18.58;;;6.57;;
58360;SDS011;44164;44.954;10.068;2022-09-16T06:28:40;15.13;;;7.43;;
58360;SDS011;44164;44.954;10.068;2022-09-16T06:31:10;12.15;;;8.80;;
58360;SDS011;44164;44.954;10.068;2022-09-16T06:33:41;13.65;;;9.40;;
58360;SDS011;44164;44.954;10.068;2022-09-16T06:38:34;20.25;;;11.32;;
58360;SDS011;44164;44.954;10.068;2022-09-16T06:41:02;16.55;;;11.02;;
58360;SDS011;44164;44.954;10.068;2022-09-16T06:48:24;18.27;;;13.60;;
58360;SDS011;44164;44.954;10.068;2022-09-16T06:51:02;21.90;;;15.25;;
58360;SDS011;44164;44.954;10.068;2022-09-16T06:53:29;21.67;;;14.25;;
58360;SDS011;44164;44.954;10.068;2022-09-16T06:56:00;21.20;;;14.05;;
58360;SDS011;44164;44.954;10.068;2022-09-16T06:58:35;20.27;;;12.45;;
58360;SDS011;44164;44.954;10.068;2022-09-16T07:01:09;29.02;;;14.05;;
58360;SDS011;44164;44.954;10.068;2022-09-16T07:03:41;30.92;;;15.15;;
58360;SDS011;44164;44.954;10.068;2022-09-16T07:06:09;19.98;;;13.18;;
58360;SDS011;44164;44.954;10.068;2022-09-16T07:08:37;22.33;;;13.23;;
58360;SDS011;44164;44.954;10.068;2022-09-16T07:11:04;15.60;;;13.02;;
58360;SDS011;44164;44.954;10.068;2022-09-16T07:13:34;24.00;;;12.98;;
58360;SDS011;44164;44.954;10.068;2022-09-16T07:16:01;18.42;;;12.48;;
58360;SDS011;44164;44.954;10.068;2022-09-16T07:18:28;23.58;;;12.38;;
58360;SDS011;44164;44.954;10.068;2022-09-16T07:23:32;20.35;;;12.98;;
58360;SDS011;44164;44.954;10.068;2022-09-16T07:26:04;17.58;;;12.80;;
58360;SDS011;44164;44.954;10.068;2022-09-16T07:28:33;22.35;;;13.93;;
58360;SDS011;44164;44.954;10.068;2022-09-16T07:31:01;21.23;;;13.50;;
58360;SDS011;44164;44.954;10.068;2022-09-16T07:33:29;22.08;;;13.77;;
58360;SDS011;44164;44.954;10.068;2022-09-16T07:35:57;25.17;;;14.23;;
58360;SDS011;44164;44.954;10.068;2022-09-16T07:38:25;17.60;;;12.20;;
58360;SDS011;44164;44.954;10.068;2022-09-16T07:40:52;16.38;;;11.90;;
58360;SDS011;44164;44.954;10.068;2022-09-16T07:43:18;15.82;;;12.82;;
58360;SDS011;44164;44.954;10.068;2022-09-16T07:45:44;25.63;;;14.00;;
58360;SDS011;44164;44.954;10.068;2022-09-16T07:48:10;17.75;;;12.05;;
58360;SDS011;44164;44.954;10.068;2022-09-16T07:50:36;22.05;;;13.43;;
58360;SDS011;44164;44.954;10.068;2022-09-16T07:53:03;15.05;;;12.75;;
58360;SDS011;44164;44.954;10.068;2022-09-16T07:55:29;25.30;;;13.93;;
58360;SDS011;44164;44.954;10.068;2022-09-16T07:57:55;18.38;;;14.13;;
58360;SDS011;44164;44.954;10.068;2022-09-16T08:00:21;23.50;;;14.18;;
58360;SDS011;44164;44.954;10.068;2022-09-16T08:02:47;20.67;;;14.63;;
58360;SDS011;44164;44.954;10.068;2022-09-16T08:05:14;24.40;;;15.35;;
58360;SDS011;44164;44.954;10.068;2022-09-16T08:07:41;23.00;;;15.48;;
58360;SDS011;44164;44.954;10.068;2022-09-16T08:10:07;22.38;;;14.32;;
58360;SDS011;44164;44.954;10.068;2022-09-16T08:12:33;20.50;;;14.93;;
58360;SDS011;44164;44.954;10.068;2022-09-16T08:15:00;20.02;;;14.85;;
58360;SDS011;44164;44.954;10.068;2022-09-16T08:17:26;19.13;;;12.43;;
58360;SDS011;44164;44.954;10.068;2022-09-16T08:19:52;16.80;;;12.50;;
58360;SDS011;44164;44.954;10.068;2022-09-16T08:22:20;16.23;;;12.45;;
58360;SDS011;44164;44.954;10.068;2022-09-16T08:24:48;21.30;;;13.18;;
58360;SDS011;44164;44.954;10.068;2022-09-16T08:27:14;17.90;;;12.05;;
58360;SDS011;44164;44.954;10.068;2022-09-16T08:29:40;18.85;;;13.05;;
58360;SDS011;44164;44.954;10.068;2022-09-16T08:32:07;12.27;;;9.88;;
58360;SDS011;44164;44.954;10.068;2022-09-16T08:34:33;17.83;;;10.75;;
58360;SDS011;44164;44.954;10.068;2022-09-16T08:36:59;15.55;;;10.65;;
58360;SDS011;44164;44.954;10.068;2022-09-16T08:39:25;15.95;;;9.88;;
58360;SDS011;44164;44.954;10.068;2022-09-16T08:50:27;14.73;;;11.65;;
58360;SDS011;44164;44.954;10.068;2022-09-16T08:52:58;21.98;;;11.20;;
58360;SDS011;44164;44.954;10.068;2022-09-16T08:55:29;16.08;;;8.52;;
58360;SDS011;44164;44.954;10.068;2022-09-16T09:00:42;17.42;;;9.48;;
58360;SDS011;44164;44.954;10.068;2022-09-16T09:28:50;18.08;;;7.95;;
58360;SDS011;44164;44.954;10.068;2022-09-16T09:39:48;21.38;;;8.90;;
58360;SDS011;44164;44.954;10.068;2022-09-16T09:42:35;22.83;;;9.50;;
58360;SDS011;44164;44.954;10.068;2022-09-16T09:47:54;14.35;;;7.68;;
58360;SDS011;44164;44.954;10.068;2022-09-16T09:53:23;17.33;;;7.22;;
58360;SDS011;44164;44.954;10.068;2022-09-16T09:56:16;15.27;;;7.07;;
58360;SDS011;44164;44.954;10.068;2022-09-16T10:01:18;15.82;;;6.63;;
58360;SDS011;44164;44.954;10.068;2022-09-16T10:03:46;16.55;;;6.80;;
58360;SDS011;44164;44.954;10.068;2022-09-16T10:06:13;17.23;;;7.57;;
58360;SDS011;44164;44.954;10.068;2022-09-16T10:11:14;15.38;;;6.38;;
58360;SDS011;44164;44.954;10.068;2022-09-16T10:13:48;16.33;;;6.68;;
58360;SDS011;44164;44.954;10.068;2022-09-16T10:16:35;16.20;;;7.00;;
58360;SDS011;44164;44.954;10.068;2022-09-16T10:19:04;16.73;;;7.13;;
58360;SDS011;44164;44.954;10.068;2022-09-16T10:21:44;13.57;;;6.18;;
58360;SDS011;44164;44.954;10.068;2022-09-16T10:24:32;14.80;;;6.20;;
58360;SDS011;44164;44.954;10.068;2022-09-16T10:29:27;17.77;;;6.10;;
58360;SDS011;44164;44.954;10.068;2022-09-16T10:31:54;10.55;;;5.68;;
58360;SDS011;44164;44.954;10.068;2022-09-16T10:34:35;14.45;;;5.30;;
58360;SDS011;44164;44.954;10.068;2022-09-16T10:39:38;17.05;;;5.25;;
58360;SDS011;44164;44.954;10.068;2022-09-16T10:42:14;15.35;;;5.18;;
58360;SDS011;44164;44.954;10.068;2022-09-16T10:44:45;14.00;;;6.22;;
58360;SDS011;44164;44.954;10.068;2022-09-16T10:47:17;13.20;;;5.28;;
58360;SDS011;44164;44.954;10.068;2022-09-16T10:49:59;16.80;;;6.55;;
58360;SDS011;44164;44.954;10.068;2022-09-16T10:52:28;14.95;;;5.72;;
58360;SDS011;44164;44.954;10.068;2022-09-16T11:25:51;14.15;;;4.47;;
58360;SDS011;44164;44.954;10.068;2022-09-16T11:33:55;9.68;;;4.05;;
58360;SDS011;44164;44.954;10.068;2022-09-16T11:42:33;10.70;;;3.65;;
58360;SDS011;44164;44.954;10.068;2022-09-16T11:55:58;6.65;;;2.90;;
58360;SDS011;44164;44.954;10.068;2022-09-16T12:01:29;7.50;;;3.05;;
58360;SDS011;44164;44.954;10.068;2022-09-16T12:03:58;7.22;;;2.55;;
58360;SDS011;44164;44.954;10.068;2022-09-16T12:06:29;10.15;;;2.75;;
58360;SDS011;44164;44.954;10.068;2022-09-16T12:09:03;6.57;;;3.03;;
58360;SDS011;44164;44.954;10.068;2022-09-16T12:11:39;7.82;;;3.10;;
58360;SDS011;44164;44.954;10.068;2022-09-16T12:16:56;9.50;;;3.30;;
58360;SDS011;44164;44.954;10.068;2022-09-16T12:19:28;6.93;;;3.45;;
58360;SDS011;44164;44.954;10.068;2022-09-16T12:22:09;6.60;;;3.00;;
58360;SDS011;44164;44.954;10.068;2022-09-16T12:30:22;8.50;;;3.22;;
58360;SDS011;44164;44.954;10.068;2022-09-16T12:32:54;7.50;;;2.60;;
58360;SDS011;44164;44.954;10.068;2022-09-16T12:35:32;6.97;;;2.70;;
58360;SDS011;44164;44.954;10.068;2022-09-16T12:38:03;7.20;;;3.05;;
58360;SDS011;44164;44.954;10.068;2022-09-16T12:52:15;3.70;;;1.80;;
58360;SDS011;44164;44.954;10.068;2022-09-16T12:57:43;6.28;;;2.63;;
58360;SDS011;44164;44.954;10.068;2022-09-16T13:02:51;4.15;;;1.88;;
58360;SDS011;44164;44.954;10.068;2022-09-16T13:08:13;6.10;;;2.33;;
58360;SDS011;44164;44.954;10.068;2022-09-16T13:11:01;3.97;;;2.22;;
58360;SDS011;44164;44.954;10.068;2022-09-16T13:13:33;6.03;;;2.75;;
58360;SDS011;44164;44.954;10.068;2022-09-16T13:16:02;4.65;;;2.30;;
58360;SDS011;44164;44.954;10.068;2022-09-16T13:18:40;5.55;;;2.38;;
58360;SDS011;44164;44.954;10.068;2022-09-16T13:23:50;6.43;;;2.15;;
58360;SDS011;44164;44.954;10.068;2022-09-16T13:26:18;7.72;;;2.97;;
58360;SDS011;44164;44.954;10.068;2022-09-16T13:28:45;4.25;;;2.00;;
58360;SDS011;44164;44.954;10.068;2022-09-16T13:33:39;6.27;;;2.37;;
58360;SDS011;44164;44.954;10.068;2022-09-16T13:36:14;6.05;;;2.63;;
58360;SDS011;44164;44.954;10.068;2022-09-16T13:39:02;5.35;;;2.22;;
58360;SDS011;44164;44.954;10.068;2022-09-16T13:41:41;6.53;;;2.88;;
58360;SDS011;44164;44.954;10.068;2022-09-16T13:49:34;5.32;;;2.50;;
58360;SDS011;44164;44.954;10.068;2022-09-16T13:52:10;7.00;;;2.60;;
58360;SDS011;44164;44.954;10.068;2022-09-16T13:54:41;8.73;;;2.13;;
58360;SDS011;44164;44.954;10.068;2022-09-16T14:02:38;5.53;;;2.33;;
58360;SDS011;44164;44.954;10.068;2022-09-16T14:05:38;3.80;;;2.13;;
58360;SDS011;44164;44.954;10.068;2022-09-16T14:08:27;6.50;;;1.75;;
58360;SDS011;44164;44.954;10.068;2022-09-16T14:11:16;4.85;;;1.95;;
58360;SDS011;44164;44.954;10.068;2022-09-16T14:13:50;4.68;;;2.05;;
58360;SDS011;44164;44.954;10.068;2022-09-16T14:16:24;5.95;;;2.45;;
58360;SDS011;44164;44.954;10.068;2022-09-16T14:18:53;5.18;;;2.30;;
58360;SDS011;44164;44.954;10.068;2022-09-16T14:21:21;4.85;;;2.00;;
58360;SDS011;44164;44.954;10.068;2022-09-16T14:23:48;4.55;;;2.08;;
58360;SDS011;44164;44.954;10.068;2022-09-16T14:26:19;4.60;;;2.22;;
58360;SDS011;44164;44.954;10.068;2022-09-16T14:28:46;4.88;;;2.20;;
58360;SDS011;44164;44.954;10.068;2022-09-16T14:31:17;4.63;;;2.05;;
58360;SDS011;44164;44.954;10.068;2022-09-16T14:36:27;3.83;;;1.92;;
58360;SDS011;44164;44.954;10.068;2022-09-16T14:39:00;3.53;;;1.90;;
58360;SDS011;44164;44.954;10.068;2022-09-16T14:46:44;5.22;;;2.50;;
58360;SDS011;44164;44.954;10.068;2022-09-16T14:49:13;9.63;;;2.75;;
58360;SDS011;44164;44.954;10.068;2022-09-16T14:51:52;4.47;;;2.20;;
58360;SDS011;44164;44.954;10.068;2022-09-16T14:54:21;4.05;;;1.80;;
58360;SDS011;44164;44.954;10.068;2022-09-16T14:59:22;6.53;;;2.55;;
58360;SDS011;44164;44.954;10.068;2022-09-16T15:02:03;4.63;;;2.00;;
58360;SDS011;44164;44.954;10.068;2022-09-16T15:04:34;5.65;;;2.03;;
58360;SDS011;44164;44.954;10.068;2022-09-16T15:07:07;3.33;;;1.70;;
58360;SDS011;44164;44.954;10.068;2022-09-16T15:12:27;7.63;;;2.20;;
58360;SDS011;44164;44.954;10.068;2022-09-16T15:14:55;4.38;;;2.15;;
58360;SDS011;44164;44.954;10.068;2022-09-16T15:17:23;6.95;;;2.10;;
58360;SDS011;44164;44.954;10.068;2022-09-16T15:19:52;9.82;;;2.13;;
58360;SDS011;44164;44.954;10.068;2022-09-16T15:22:21;6.32;;;2.05;;
58360;SDS011;44164;44.954;10.068;2022-09-16T15:24:49;4.82;;;2.15;;
58360;SDS011;44164;44.954;10.068;2022-09-16T15:27:25;6.28;;;2.40;;
58360;SDS011;44164;44.954;10.068;2022-09-16T15:29:54;6.20;;;2.20;;
58360;SDS011;44164;44.954;10.068;2022-09-16T15:32:25;5.20;;;1.80;;
58360;SDS011;44164;44.954;10.068;2022-09-16T15:35:28;3.10;;;1.60;;
58360;SDS011;44164;44.954;10.068;2022-09-16T15:37:48;5.47;;;2.20;;
58360;SDS011;44164;44.954;10.068;2022-09-16T15:40:19;3.85;;;2.20;;
58360;SDS011;44164;44.954;10.068;2022-09-16T15:45:27;6.55;;;2.03;;
58360;SDS011;44164;44.954;10.068;2022-09-16T15:47:57;4.65;;;1.70;;
58360;SDS011;44164;44.954;10.068;2022-09-16T15:50:26;4.93;;;1.83;;
58360;SDS011;44164;44.954;10.068;2022-09-16T15:55:36;6.90;;;1.85;;
58360;SDS011;44164;44.954;10.068;2022-09-16T15:58:19;3.60;;;2.28;;
58360;SDS011;44164;44.954;10.068;2022-09-16T16:01:12;6.70;;;1.65;;
58360;SDS011;44164;44.954;10.068;2022-09-16T16:03:53;3.72;;;1.48;;
58360;SDS011;44164;44.954;10.068;2022-09-16T16:06:44;5.53;;;1.80;;
58360;SDS011;44164;44.954;10.068;2022-09-16T16:11:55;5.15;;;1.70;;
58360;SDS011;44164;44.954;10.068;2022-09-16T16:14:25;2.92;;;1.80;;
58360;SDS011;44164;44.954;10.068;2022-09-16T16:17:13;5.57;;;1.73;;
58360;SDS011;44164;44.954;10.068;2022-09-16T16:19:41;3.00;;;1.58;;
58360;SDS011;44164;44.954;10.068;2022-09-16T16:22:08;3.72;;;1.92;;
58360;SDS011;44164;44.954;10.068;2022-09-16T16:24:35;9.25;;;1.95;;
58360;SDS011;44164;44.954;10.068;2022-09-16T16:27:01;3.70;;;1.52;;
58360;SDS011;44164;44.954;10.068;2022-09-16T16:29:28;9.82;;;1.95;;
58360;SDS011;44164;44.954;10.068;2022-09-16T16:31:59;4.20;;;1.88;;
58360;SDS011;44164;44.954;10.068;2022-09-16T16:34:33;4.28;;;2.03;;
58360;SDS011;44164;44.954;10.068;2022-09-16T16:37:01;3.67;;;1.35;;
58360;SDS011;44164;44.954;10.068;2022-09-16T16:39:27;3.15;;;1.33;;
58360;SDS011;44164;44.954;10.068;2022-09-16T16:41:53;3.17;;;1.63;;
58360;SDS011;44164;44.954;10.068;2022-09-16T16:44:20;2.72;;;1.45;;
58360;SDS011;44164;44.954;10.068;2022-09-16T16:46:48;5.00;;;1.80;;
58360;SDS011;44164;44.954;10.068;2022-09-16T16:49:15;2.40;;;1.50;;
58360;SDS011;44164;44.954;10.068;2022-09-16T16:51:41;4.93;;;1.75;;
58360;SDS011;44164;44.954;10.068;2022-09-16T16:54:09;4.20;;;1.58;;
58360;SDS011;44164;44.954;10.068;2022-09-16T16:56:36;4.03;;;1.88;;
58360;SDS011;44164;44.954;10.068;2022-09-16T16:59:05;3.10;;;1.50;;
58360;SDS011;44164;44.954;10.068;2022-09-16T17:01:33;2.80;;;1.50;;
58360;SDS011;44164;44.954;10.068;2022-09-16T17:04:00;3.95;;;1.67;;
58360;SDS011;44164;44.954;10.068;2022-09-16T17:06:27;3.60;;;1.60;;
58360;SDS011;44164;44.954;10.068;2022-09-16T17:08:54;2.20;;;1.33;;
58360;SDS011;44164;44.954;10.068;2022-09-16T17:11:21;5.30;;;1.92;;
58360;SDS011;44164;44.954;10.068;2022-09-16T17:13:48;5.40;;;2.00;;
58360;SDS011;44164;44.954;10.068;2022-09-16T17:18:44;4.85;;;2.10;;
58360;SDS011;44164;44.954;10.068;2022-09-16T17:21:11;5.47;;;1.75;;
58360;SDS011;44164;44.954;10.068;2022-09-16T17:23:38;3.65;;;1.60;;
58360;SDS011;44164;44.954;10.068;2022-09-16T17:26:04;4.22;;;1.88;;
58360;SDS011;44164;44.954;10.068;2022-09-16T17:28:31;6.60;;;1.98;;
58360;SDS011;44164;44.954;10.068;2022-09-16T17:30:57;4.28;;;1.55;;
58360;SDS011;44164;44.954;10.068;2022-09-16T17:33:24;3.75;;;1.52;;
58360;SDS011;44164;44.954;10.068;2022-09-16T17:36:00;3.78;;;1.70;;
58360;SDS011;44164;44.954;10.068;2022-09-16T17:38:30;5.47;;;1.73;;
58360;SDS011;44164;44.954;10.068;2022-09-16T17:41:05;4.28;;;1.27;;
58360;SDS011;44164;44.954;10.068;2022-09-16T17:43:33;3.83;;;2.13;;
58360;SDS011;44164;44.954;10.068;2022-09-16T17:46:00;6.43;;;2.05;;
58360;SDS011;44164;44.954;10.068;2022-09-16T17:50:54;7.75;;;1.73;;
58360;SDS011;44164;44.954;10.068;2022-09-16T17:53:21;4.30;;;1.95;;
58360;SDS011;44164;44.954;10.068;2022-09-16T17:55:47;4.68;;;1.40;;
58360;SDS011;44164;44.954;10.068;2022-09-16T17:58:14;5.05;;;1.48;;
58360;SDS011;44164;44.954;10.068;2022-09-16T18:00:41;4.22;;;1.50;;
58360;SDS011;44164;44.954;10.068;2022-09-16T18:03:08;4.05;;;1.70;;
58360;SDS011;44164;44.954;10.068;2022-09-16T18:05:36;3.83;;;1.80;;
58360;SDS011;44164;44.954;10.068;2022-09-16T18:08:03;5.82;;;1.60;;
58360;SDS011;44164;44.954;10.068;2022-09-16T18:10:30;3.40;;;1.38;;
58360;SDS011;44164;44.954;10.068;2022-09-16T18:12:56;3.88;;;1.80;;
58360;SDS011;44164;44.954;10.068;2022-09-16T18:15:25;6.50;;;1.48;;
58360;SDS011;44164;44.954;10.068;2022-09-16T18:17:52;2.70;;;1.65;;
58360;SDS011;44164;44.954;10.068;2022-09-16T18:20:19;6.13;;;1.80;;
58360;SDS011;44164;44.954;10.068;2022-09-16T18:22:45;2.50;;;1.20;;
58360;SDS011;44164;44.954;10.068;2022-09-16T18:25:13;2.75;;;1.42;;
58360;SDS011;44164;44.954;10.068;2022-09-16T18:27:39;3.10;;;1.30;;
58360;SDS011;44164;44.954;10.068;2022-09-16T18:30:05;6.95;;;2.05;;
58360;SDS011;44164;44.954;10.068;2022-09-16T18:32:32;3.75;;;2.00;;
58360;SDS011;44164;44.954;10.068;2022-09-16T18:34:58;3.70;;;1.50;;
58360;SDS011;44164;44.954;10.068;2022-09-16T18:37:24;4.18;;;1.60;;
58360;SDS011;44164;44.954;10.068;2022-09-16T18:39:50;4.80;;;1.73;;
58360;SDS011;44164;44.954;10.068;2022-09-16T18:42:16;4.10;;;1.52;;
58360;SDS011;44164;44.954;10.068;2022-09-16T18:44:43;2.63;;;1.30;;
58360;SDS011;44164;44.954;10.068;2022-09-16T18:47:09;2.85;;;1.42;;
58360;SDS011;44164;44.954;10.068;2022-09-16T18:49:35;2.92;;;1.33;;
58360;SDS011;44164;44.954;10.068;2022-09-16T18:52:01;5.07;;;1.55;;
58360;SDS011;44164;44.954;10.068;2022-09-16T18:54:27;2.85;;;1.35;;
58360;SDS011;44164;44.954;10.068;2022-09-16T18:56:54;3.72;;;1.40;;
58360;SDS011;44164;44.954;10.068;2022-09-16T18:59:22;3.20;;;1.58;;
58360;SDS011;44164;44.954;10.068;2022-09-16T19:01:51;2.90;;;1.30;;